Time;durP1;ratioP1;P1;durP2;ratioP2;P2;SDS_P1;SDS_P2;PMS_P1;PMS_P2;Temp;Humidity;BMP_temperature;BMP_pressure;BME280_temperature;BME280_humidity;BME280_pressure;Samples;Min_cycle;Max_cycle;Signal;HPM_P1;HPM_P2
2023/04/25 00:01:41;;;;;;;19.15;6.15;;;;;;;9.01;89.16;100015.22;8278031;28;20596;-60
2023/04/25 00:05:41;;;;;;;18.30;5.95;;;;;;;8.87;89.53;100013.81;8267036;28;20050;-60
2023/04/25 00:09:42;;;;;;;21.92;5.72;;;;;;;8.74;90.15;100020.47;8287792;28;20485;-60
2023/04/25 00:13:42;;;;;;;18.58;6.07;;;;;;;8.62;91.16;100016.19;8287392;28;20435;-60
2023/04/25 00:17:43;;;;;;;24.85;5.93;;;;;;;8.46;92.42;100022.16;8289993;28;20041;-60
2023/04/25 00:21:45;;;;;;;25.17;6.18;;;;;;;8.37;93.28;100017.59;8281634;28;20572;-60
2023/04/25 00:25:47;;;;;;;25.17;6.38;;;;;;;8.26;95.34;100015.00;8288719;28;20400;-59
2023/04/25 00:29:47;;;;;;;23.33;6.57;;;;;;;8.20;95.12;100030.84;8269768;28;20044;-59
2023/04/25 00:33:48;;;;;;;25.35;5.97;;;;;;;8.01;95.91;100021.72;8290112;28;20045;-59
2023/04/25 00:37:48;;;;;;;25.67;6.50;;;;;;;7.98;96.10;100022.00;8289328;28;20424;-59
2023/04/25 00:41:52;;;;;;;20.85;5.80;;;;;;;8.01;96.74;100016.34;8294771;28;20046;-59
2023/04/25 00:45:53;;;;;;;24.30;6.28;;;;;;;8.06;95.58;100016.75;8294545;28;20041;-59
2023/04/25 00:49:54;;;;;;;22.15;6.30;;;;;;;7.87;98.03;100015.88;8295097;28;20049;-59
2023/04/25 00:53:54;;;;;;;19.98;7.03;;;;;;;7.90;98.52;100015.59;8325988;28;20041;-59
2023/04/25 00:57:55;;;;;;;27.88;7.00;;;;;;;7.99;99.68;100021.00;8294906;28;20460;-61
2023/04/25 01:01:55;;;;;;;26.60;6.78;;;;;;;7.96;99.15;100017.72;8294216;28;20034;-61
2023/04/25 01:05:56;;;;;;;23.23;8.05;;;;;;;7.97;99.03;100019.44;8294511;28;20034;-60
2023/04/25 01:09:57;;;;;;;25.13;6.63;;;;;;;7.87;99.19;100024.78;8294988;28;20038;-60
2023/04/25 01:13:58;;;;;;;27.40;6.05;;;;;;;7.76;99.27;100022.19;8294487;28;20088;-60
2023/04/25 01:18:00;;;;;;;29.17;6.85;;;;;;;7.77;100.00;100029.28;8294426;28;20041;-60
2023/04/25 01:22:01;;;;;;;27.92;6.65;;;;;;;7.89;98.82;100028.19;8275422;28;20507;-61
2023/04/25 01:26:05;;;;;;;32.13;6.60;;;;;;;7.79;99.66;100021.94;8292550;28;20042;-60
2023/04/25 01:30:07;;;;;;;25.92;6.75;;;;;;;7.96;97.79;100026.66;8294054;28;20514;-59
2023/04/25 01:34:07;;;;;;;23.88;6.68;;;;;;;8.04;97.72;100021.44;8293975;28;20108;-60
2023/04/25 01:38:08;;;;;;;24.65;6.43;;;;;;;8.21;96.37;100032.53;8293473;28;20096;-60
2023/04/25 01:42:08;;;;;;;31.48;7.03;;;;;;;8.33;95.08;100031.47;8293463;28;20058;-60
2023/04/25 01:46:10;;;;;;;28.10;6.65;;;;;;;8.36;95.35;100036.59;8292771;28;20042;-60
2023/04/25 01:50:11;;;;;;;24.80;7.20;;;;;;;8.36;94.92;100042.84;8264914;28;20048;-58
2023/04/25 01:54:13;;;;;;;23.85;7.07;;;;;;;8.52;92.31;100042.28;8266782;28;20085;-57
2023/04/25 01:58:14;;;;;;;24.60;6.70;;;;;;;8.52;92.12;100036.91;8260663;28;20132;-59
2023/04/25 02:02:30;;;;;;;24.00;6.43;;;;;;;8.42;92.37;100036.03;8291414;28;20393;-58
2023/04/25 02:06:33;;;;;;;18.65;6.43;;;;;;;8.34;93.08;100043.94;8292306;28;20038;-58
2023/04/25 02:10:34;;;;;;;25.98;7.35;;;;;;;8.36;93.51;100040.16;8292851;28;20044;-58
2023/04/25 02:14:53;;;;;;;16.00;5.05;;;;;;;8.30;93.41;100053.31;8291873;28;20046;-58
2023/04/25 02:19:01;;;;;;;22.48;5.60;;;;;;;8.37;92.60;100039.16;8292475;28;20037;-58
2023/04/25 02:23:05;;;;;;;15.38;5.18;;;;;;;8.28;94.24;100049.88;8292608;28;20033;-58
2023/04/25 02:27:05;;;;;;;16.08;5.13;;;;;;;8.41;92.24;100040.56;8292199;28;20065;-59
2023/04/25 02:31:06;;;;;;;16.02;5.15;;;;;;;8.50;91.69;100038.88;8292312;28;20038;-58
2023/04/25 02:35:07;;;;;;;22.95;6.07;;;;;;;8.49;92.12;100034.47;8290270;28;20057;-59
2023/04/25 02:39:07;;;;;;;27.38;7.15;;;;;;;8.49;92.97;100045.25;8292102;28;20080;-63
2023/04/25 02:43:08;;;;;;;20.67;6.82;;;;;;;8.53;93.01;100052.06;8291629;28;20073;-59
2023/04/25 02:47:09;;;;;;;22.73;7.18;;;;;;;8.47;92.83;100042.69;8291750;28;20049;-63
2023/04/25 02:51:09;;;;;;;26.90;7.25;;;;;;;8.50;92.55;100039.72;8290616;28;20053;-63
2023/04/25 02:55:10;;;;;;;20.73;6.70;;;;;;;8.50;93.07;100041.56;8291550;28;20504;-60
2023/04/25 02:59:12;;;;;;;24.98;6.80;;;;;;;8.48;93.32;100030.09;8291752;28;20098;-60
2023/04/25 03:03:12;;;;;;;27.92;7.25;;;;;;;8.51;93.74;100032.50;8290923;28;20045;-62
2023/04/25 03:07:13;;;;;;;20.77;6.60;;;;;;;8.50;93.33;100030.78;8290996;28;20057;-63
2023/04/25 03:11:13;;;;;;;26.52;7.50;;;;;;;8.50;92.97;100034.34;8291345;28;20112;-63
2023/04/25 03:15:16;;;;;;;26.02;7.25;;;;;;;8.45;94.50;100044.66;8290770;28;20050;-59
2023/04/25 03:19:18;;;;;;;30.23;7.55;;;;;;;8.40;94.40;100046.94;8290151;28;20492;-59
2023/04/25 03:23:18;;;;;;;18.10;7.80;;;;;;;8.38;94.89;100048.09;8289151;28;20057;-59
2023/04/25 03:27:19;;;;;;;33.53;8.25;;;;;;;8.25;96.45;100050.16;8288919;28;20038;-59
2023/04/25 03:31:21;;;;;;;16.85;7.15;;;;;;;8.18;97.75;100062.44;8290101;28;20573;-59
2023/04/25 03:35:23;;;;;;;26.33;8.30;;;;;;;8.17;97.43;100063.44;8289313;28;20081;-59
2023/04/25 03:39:24;;;;;;;17.23;7.40;;;;;;;8.14;98.56;100061.03;8290615;28;20061;-59
2023/04/25 03:43:26;;;;;;;19.52;7.78;;;;;;;8.17;97.59;100060.75;8290168;28;20096;-59
2023/04/25 03:47:33;;;;;;;28.23;7.88;;;;;;;8.08;97.77;100063.25;8294717;28;20034;-59
2023/04/25 03:51:34;;;;;;;26.98;7.07;;;;;;;8.09;97.53;100073.03;8309313;28;20057;-60
2023/04/25 03:55:36;;;;;;;27.77;7.47;;;;;;;8.05;97.67;100068.91;8290429;28;20060;-59
2023/04/25 03:59:37;;;;;;;23.38;7.43;;;;;;;8.11;97.27;100075.56;8290691;28;20042;-59
2023/04/25 04:03:38;;;;;;;25.10;7.60;;;;;;;8.05;97.95;100078.81;8290137;28;20038;-59
2023/04/25 04:07:40;;;;;;;24.33;8.60;;;;;;;8.04;99.33;100083.38;8287371;28;20044;-59
2023/04/25 04:11:42;;;;;;;28.75;7.45;;;;;;;8.01;99.05;100083.63;8287831;28;20057;-60
2023/04/25 04:15:43;;;;;;;22.20;7.40;;;;;;;8.09;98.66;100088.34;8306129;28;20038;-59
2023/04/25 04:19:44;;;;;;;32.47;7.72;;;;;;;8.14;97.10;100086.06;8302614;28;20069;-59
2023/04/25 04:23:48;;;;;;;21.17;7.70;;;;;;;8.16;97.02;100094.03;8295832;28;20332;-59
2023/04/25 04:27:51;;;;;;;31.20;7.35;;;;;;;8.23;96.21;100095.25;8278101;28;20045;-59
2023/04/25 04:32:03;;;;;;;33.45;8.02;;;;;;;8.09;97.63;100107.19;8289759;28;20514;-63
2023/04/25 04:36:07;;;;;;;33.92;8.20;;;;;;;8.08;98.17;100109.00;8287819;28;20595;-63
2023/04/25 04:40:09;;;;;;;29.48;8.13;;;;;;;8.11;98.52;100112.44;8295728;28;20042;-63
2023/04/25 04:44:20;;;;;;;32.30;8.00;;;;;;;8.20;96.84;100117.00;8293003;28;20088;-64
2023/04/25 04:48:41;;;;;;;24.95;7.95;;;;;;;8.27;97.40;100120.91;8310934;28;20037;-63
2023/04/25 04:53:02;;;;;;;24.15;7.80;;;;;;;8.18;98.10;100119.84;8299223;28;20511;-63
2023/04/25 04:57:22;;;;;;;27.40;7.57;;;;;;;8.18;98.24;100129.75;8295033;28;20054;-59
2023/04/25 05:01:42;;;;;;;29.63;7.68;;;;;;;8.23;98.35;100141.00;8255042;28;20460;-59
2023/04/25 05:06:03;;;;;;;28.40;7.60;;;;;;;8.29;97.41;100138.59;8260993;28;20505;-59
2023/04/25 05:10:23;;;;;;;25.42;6.85;;;;;;;8.30;96.82;100139.47;8294260;28;20052;-59
2023/04/25 05:14:44;;;;;;;26.63;7.30;;;;;;;8.37;98.17;100140.63;8293126;28;20045;-59
2023/04/25 05:19:04;;;;;;;25.88;7.55;;;;;;;8.29;96.88;100149.38;8293657;28;20120;-59
2023/04/25 05:23:18;;;;;;;30.07;8.30;;;;;;;8.33;97.65;100161.59;8299040;28;20042;-59
2023/04/25 05:27:29;;;;;;;30.45;7.97;;;;;;;8.39;98.20;100162.91;8293729;28;20367;-59
2023/04/25 05:31:49;;;;;;;35.72;8.50;;;;;;;8.39;96.63;100155.69;8293013;28;20048;-59
2023/04/25 05:35:51;;;;;;;30.52;9.07;;;;;;;8.55;97.62;100161.41;8266122;28;20386;-59
2023/04/25 05:39:53;;;;;;;31.15;8.48;;;;;;;8.91;96.31;100173.44;8281180;28;20041;-63
2023/04/25 05:44:05;;;;;;;30.33;8.38;;;;;;;8.96;94.93;100179.22;8294225;28;20100;-59
2023/04/25 05:48:12;;;;;;;24.35;7.25;;;;;;;9.18;95.58;100177.16;8281755;28;20069;-58
2023/04/25 05:52:22;;;;;;;28.27;7.88;;;;;;;9.16;94.43;100183.69;8290140;28;20064;-58
2023/04/25 05:56:34;;;;;;;24.63;7.70;;;;;;;9.23;95.65;100185.69;8309578;28;20045;-58
2023/04/25 06:00:35;;;;;;;25.30;8.32;;;;;;;9.24;93.20;100186.53;8292278;28;20034;-58
2023/04/25 06:04:36;;;;;;;26.55;6.85;;;;;;;9.21;92.42;100189.53;8292504;28;20122;-58
2023/04/25 06:08:37;;;;;;;32.90;7.85;;;;;;;9.20;93.25;100190.50;8292635;28;20049;-58
2023/04/25 06:12:38;;;;;;;25.05;6.75;;;;;;;9.23;93.53;100193.78;8292541;28;20592;-58
2023/04/25 06:16:39;;;;;;;26.23;6.55;;;;;;;9.24;90.43;100194.63;8292032;28;20049;-59
2023/04/25 06:20:40;;;;;;;23.75;6.75;;;;;;;9.24;89.47;100200.03;8292087;28;20484;-59
2023/04/25 06:24:41;;;;;;;32.42;6.75;;;;;;;9.31;88.75;100199.34;8292132;28;20040;-59
2023/04/25 06:28:42;;;;;;;29.83;7.25;;;;;;;9.27;88.20;100197.06;8292577;28;20130;-58
2023/04/25 06:32:44;;;;;;;21.25;6.10;;;;;;;9.25;87.59;100209.81;8260179;28;20085;-59
2023/04/25 06:36:44;;;;;;;18.33;6.05;;;;;;;9.13;87.21;100210.94;8283368;28;20033;-58
2023/04/25 06:40:48;;;;;;;31.73;6.90;;;;;;;9.37;89.13;100214.94;8296755;28;20489;-58
2023/04/25 06:44:49;;;;;;;26.25;6.22;;;;;;;9.26;87.53;100216.91;8289793;28;20045;-58
2023/04/25 06:48:50;;;;;;;24.42;6.93;;;;;;;9.57;89.28;100224.75;8291303;28;20056;-58
2023/04/25 06:52:52;;;;;;;26.80;6.60;;;;;;;9.76;87.70;100232.00;8289807;28;20045;-58
2023/04/25 06:56:54;;;;;;;23.38;6.30;;;;;;;9.95;88.30;100232.00;8289665;28;20037;-58
2023/04/25 07:00:55;;;;;;;21.98;5.65;;;;;;;9.92;88.21;100237.69;8299407;28;20060;-58
2023/04/25 07:04:59;;;;;;;22.77;5.88;;;;;;;10.08;86.39;100232.56;8289650;28;20029;-58
2023/04/25 07:09:00;;;;;;;21.65;5.63;;;;;;;10.09;85.68;100246.94;8287922;28;20042;-63
2023/04/25 07:13:02;;;;;;;26.42;6.25;;;;;;;10.18;84.57;100246.91;8289980;28;20044;-64
2023/04/25 07:17:06;;;;;;;23.58;6.68;;;;;;;10.16;85.02;100238.13;8296897;28;20041;-64
2023/04/25 07:21:07;;;;;;;21.67;5.03;;;;;;;10.31;85.51;100242.03;8290853;28;20042;-64
2023/04/25 07:25:09;;;;;;;27.67;5.53;;;;;;;10.42;83.75;100252.69;8289004;28;20092;-63
2023/04/25 07:29:10;;;;;;;19.55;4.95;;;;;;;10.57;83.28;100245.81;8289935;28;20064;-62
2023/04/25 07:33:11;;;;;;;20.20;5.07;;;;;;;11.00;80.52;100243.38;8289867;28;20068;-63
2023/04/25 07:37:11;;;;;;;14.35;4.28;;;;;;;11.54;77.87;100248.75;8290173;28;20049;-60
2023/04/25 07:41:25;;;;;;;26.10;3.97;;;;;;;11.86;75.75;100253.63;8290226;28;20038;-59
2023/04/25 07:45:26;;;;;;;16.55;3.80;;;;;;;11.21;75.97;100260.22;8289913;28;20096;-60
2023/04/25 07:49:27;;;;;;;19.17;4.32;;;;;;;10.56;76.19;100271.16;8293872;28;20038;-60
2023/04/25 07:53:28;;;;;;;15.20;3.88;;;;;;;10.47;74.99;100272.03;8325691;28;20041;-59
2023/04/25 07:57:34;;;;;;;23.65;4.07;;;;;;;10.33;75.57;100279.72;8264464;28;20409;-59
2023/04/25 08:01:36;;;;;;;17.33;3.83;;;;;;;10.36;76.36;100290.25;8264430;28;20069;-59
2023/04/25 08:05:38;;;;;;;18.40;4.07;;;;;;;10.54;76.16;100283.97;8263310;28;20038;-58
2023/04/25 08:09:41;;;;;;;19.17;3.88;;;;;;;11.00;75.66;100291.19;8295591;28;20044;-59
2023/04/25 08:13:47;;;;;;;16.98;3.20;;;;;;;11.16;72.55;100294.97;8296229;28;20038;-58
2023/04/25 08:17:48;;;;;;;13.88;3.17;;;;;;;10.98;71.11;100298.63;8295940;28;20049;-58
2023/04/25 08:21:51;;;;;;;13.23;2.70;;;;;;;11.17;69.73;100312.94;8295862;28;20048;-58
2023/04/25 08:25:56;;;;;;;17.67;2.83;;;;;;;10.91;69.43;100313.72;8295953;28;20038;-59
2023/04/25 08:30:02;;;;;;;10.38;3.13;;;;;;;11.19;68.27;100321.72;8296149;28;20041;-58
2023/04/25 08:34:05;;;;;;;17.05;2.92;;;;;;;11.37;69.69;100328.06;8295940;28;20116;-58
2023/04/25 08:38:10;;;;;;;17.48;3.35;;;;;;;11.57;70.63;100334.22;8295606;28;20104;-58
2023/04/25 08:42:12;;;;;;;12.77;2.88;;;;;;;11.76;70.62;100345.81;8295392;28;20065;-59
2023/04/25 08:46:17;;;;;;;13.43;2.50;;;;;;;11.96;67.85;100345.69;8295105;28;20497;-59
2023/04/25 08:50:35;;;;;;;14.45;3.10;;;;;;;12.34;69.79;100340.81;8295287;28;20053;-58
2023/04/25 08:54:37;;;;;;;15.70;3.35;;;;;;;12.41;67.91;100351.88;8294003;28;20038;-58
2023/04/25 08:58:40;;;;;;;11.05;2.90;;;;;;;12.37;67.92;100355.91;8294175;28;20041;-59
2023/04/25 09:02:43;;;;;;;15.80;2.55;;;;;;;12.22;66.70;100360.16;8294881;28;20042;-58
2023/04/25 09:06:43;;;;;;;10.70;3.15;;;;;;;12.45;67.23;100364.13;8295151;28;20030;-58
2023/04/25 09:10:44;;;;;;;11.85;2.35;;;;;;;12.70;65.93;100363.31;8294683;28;20120;-58
2023/04/25 09:15:03;;;;;;;17.27;2.65;;;;;;;12.68;61.54;100371.59;8293871;28;20026;-57
2023/04/25 09:19:28;;;;;;;13.13;2.25;;;;;;;13.20;65.31;100377.91;8293997;28;20038;-61
2023/04/25 09:23:28;;;;;;;10.85;2.20;;;;;;;12.41;59.89;100384.41;8293488;28;20145;-61
2023/04/25 09:27:29;;;;;;;11.70;2.95;;;;;;;12.51;64.54;100386.03;8292690;28;20038;-61
2023/04/25 09:31:38;;;;;;;17.48;2.60;;;;;;;12.47;64.90;100395.47;8293599;28;20522;-61
2023/04/25 09:35:43;;;;;;;12.52;2.45;;;;;;;11.81;64.22;100389.53;8292897;28;20495;-61
2023/04/25 09:39:53;;;;;;;9.43;2.65;;;;;;;11.44;66.63;100396.81;8293583;28;20270;-61
2023/04/25 09:43:58;;;;;;;11.38;2.78;;;;;;;11.44;67.79;100404.94;8294228;28;20412;-61
2023/04/25 09:48:06;;;;;;;21.58;3.53;;;;;;;11.50;68.10;100409.75;8295917;28;20072;-61
2023/04/25 09:52:15;;;;;;;15.02;3.45;;;;;;;11.95;67.72;100419.84;8293986;28;20117;-61
2023/04/25 09:56:27;;;;;;;10.80;2.67;;;;;;;12.80;66.04;100413.75;8293567;28;20045;-62
2023/04/25 10:00:28;;;;;;;17.65;3.03;;;;;;;13.55;63.05;100421.25;8293034;28;20045;-62
2023/04/25 10:04:34;;;;;;;17.42;3.25;;;;;;;13.05;63.97;100423.81;8293802;28;20044;-62
2023/04/25 10:08:40;;;;;;;16.40;3.20;;;;;;;12.71;65.31;100430.94;8293304;28;20121;-62
2023/04/25 10:12:43;;;;;;;20.67;3.55;;;;;;;12.35;66.92;100433.84;8292068;28;20334;-61
2023/04/25 10:16:45;;;;;;;11.32;2.67;;;;;;;12.17;66.45;100439.22;8292165;28;20125;-62
2023/04/25 10:20:45;;;;;;;20.42;3.53;;;;;;;12.33;68.70;100441.25;8292555;28;20500;-62
2023/04/25 10:24:47;;;;;;;11.60;3.33;;;;;;;12.59;66.67;100442.22;8308099;28;20408;-62
2023/04/25 10:28:57;;;;;;;8.60;2.28;;;;;;;13.74;64.46;100437.28;8291179;28;20034;-62
2023/04/25 10:32:59;;;;;;;11.02;2.58;;;;;;;13.47;60.13;100434.75;8291488;28;20492;-62
2023/04/25 10:37:03;;;;;;;10.52;2.25;;;;;;;14.34;60.70;100440.75;8290878;28;20103;-62
2023/04/25 10:41:08;;;;;;;10.45;2.67;;;;;;;14.47;58.12;100441.97;8306418;28;20069;-62
2023/04/25 10:45:09;;;;;;;12.98;3.20;;;;;;;17.02;51.72;100427.69;8292169;28;20080;-62
2023/04/25 10:49:10;;;;;;;11.95;2.53;;;;;;;16.56;51.55;100431.44;8292706;28;20049;-62
2023/04/25 10:53:17;;;;;;;10.60;2.65;;;;;;;14.56;58.24;100430.09;8290783;28;20038;-62
2023/04/25 10:57:39;;;;;;;9.07;2.42;;;;;;;13.65;59.85;100444.56;8273931;28;20042;-62
2023/04/25 11:01:43;;;;;;;8.77;2.10;;;;;;;12.89;59.02;100444.50;8283998;28;20041;-62
2023/04/25 11:05:46;;;;;;;9.75;2.58;;;;;;;12.71;61.75;100440.94;8292035;28;20038;-63
2023/04/25 11:09:46;;;;;;;7.93;2.00;;;;;;;13.79;61.57;100445.81;8289537;28;20135;-63
2023/04/25 11:13:49;;;;;;;6.18;2.08;;;;;;;16.17;53.06;100429.81;8290405;28;20165;-64
2023/04/25 11:17:52;;;;;;;9.40;2.20;;;;;;;18.40;51.54;100438.81;8288283;28;20558;-64
2023/04/25 11:22:00;;;;;;;9.50;2.78;;;;;;;17.79;52.79;100439.22;8289073;28;20220;-64
2023/04/25 11:26:01;;;;;;;8.10;2.40;;;;;;;18.71;51.06;100434.75;8289349;28;20597;-64
2023/04/25 11:30:17;;;;;;;9.55;1.85;;;;;;;14.75;54.27;100443.38;8295647;28;20111;-64
2023/04/25 11:34:19;;;;;;;12.02;2.67;;;;;;;13.16;56.90;100457.97;8261888;28;20034;-64
2023/04/25 11:38:19;;;;;;;12.15;2.22;;;;;;;12.29;59.95;100456.13;8287826;28;20046;-64
2023/04/25 11:42:20;;;;;;;12.93;2.30;;;;;;;12.14;62.31;100458.50;8290484;28;20052;-64
2023/04/25 11:46:21;;;;;;;12.10;3.13;;;;;;;12.24;60.49;100462.00;8290439;28;20034;-64
2023/04/25 11:50:22;;;;;;;11.95;2.25;;;;;;;12.09;59.04;100444.56;8290437;28;20038;-64
2023/04/25 11:54:22;;;;;;;7.30;2.10;;;;;;;12.37;59.70;100448.94;8286269;28;20425;-64
2023/04/25 11:58:23;;;;;;;8.80;2.15;;;;;;;14.28;59.39;100441.44;8264395;28;20454;-64
2023/04/25 12:02:25;;;;;;;10.43;2.30;;;;;;;15.64;56.70;100450.47;8283745;28;20038;-63
2023/04/25 12:06:28;;;;;;;13.43;2.42;;;;;;;14.60;55.53;100450.50;8287516;28;20058;-62
2023/04/25 12:10:28;;;;;;;10.85;2.28;;;;;;;14.21;56.08;100452.06;8288764;28;20125;-63
2023/04/25 12:14:31;;;;;;;9.50;1.92;;;;;;;14.52;57.24;100453.19;8288695;28;20038;-62
2023/04/25 12:18:35;;;;;;;7.65;2.53;;;;;;;13.86;55.50;100460.44;8288560;28;20041;-62
2023/04/25 12:22:37;;;;;;;10.23;3.05;;;;;;;13.03;57.55;100462.97;8288889;28;20065;-65
2023/04/25 12:26:59;;;;;;;7.22;2.83;;;;;;;14.36;57.27;100450.44;8289173;28;20041;-60
2023/04/25 12:31:04;;;;;;;7.75;2.22;;;;;;;14.72;58.03;100457.31;8289227;28;20056;-60
2023/04/25 12:35:06;;;;;;;;;;;;;;;14.07;54.29;100460.88;8278983;28;20038;-62
2023/04/25 12:39:07;;;;;;;5.85;2.10;;;;;;;13.76;55.87;100467.88;8291355;28;19924;-62
2023/04/25 12:43:08;;;;;;;7.90;2.47;;;;;;;13.61;57.39;100469.50;8290590;28;20463;-63
2023/04/25 12:47:08;;;;;;;6.93;1.98;;;;;;;13.28;58.15;100475.72;8291705;28;20038;-62
2023/04/25 12:51:09;;;;;;;9.90;2.28;;;;;;;12.81;58.79;100477.84;8291123;28;20369;-62
2023/04/25 12:55:10;;;;;;;8.82;2.38;;;;;;;12.28;59.67;100482.38;8292049;28;20034;-62
2023/04/25 12:59:13;;;;;;;11.77;2.50;;;;;;;12.03;61.71;100490.38;8291353;28;20111;-62
2023/04/25 13:03:13;;;;;;;11.57;2.03;;;;;;;11.83;63.43;100501.31;8292572;28;20045;-62
2023/04/25 13:07:14;;;;;;;11.20;2.25;;;;;;;11.78;65.04;100500.88;8292146;28;20116;-62
2023/04/25 13:11:14;;;;;;;6.80;2.38;;;;;;;11.72;63.44;100498.78;8292428;28;20050;-62
2023/04/25 13:15:15;;;;;;;12.63;3.20;;;;;;;11.57;63.15;100508.38;8291519;28;20508;-62
2023/04/25 13:19:15;;;;;;;12.38;3.53;;;;;;;11.64;62.95;100514.91;8291176;28;20038;-62
2023/04/25 13:23:16;;;;;;;8.32;2.45;;;;;;;11.63;61.05;100513.22;8292094;28;20041;-62
2023/04/25 13:27:16;;;;;;;9.27;2.60;;;;;;;11.84;61.30;100513.84;8290761;28;20038;-62
2023/04/25 13:31:17;;;;;;;9.77;3.25;;;;;;;12.09;60.40;100514.16;8300658;28;20412;-62
2023/04/25 13:35:17;;;;;;;4.13;1.80;;;;;;;12.17;59.44;100511.56;8308229;28;20044;-62
2023/04/25 13:39:18;;;;;;;10.65;3.90;;;;;;;12.84;60.95;100511.97;8319041;28;20041;-62
2023/04/25 13:43:21;;;;;;;8.05;2.42;;;;;;;13.01;57.90;100509.28;8314389;28;20526;-62
2023/04/25 13:47:23;;;;;;;6.35;2.17;;;;;;;12.81;58.27;100504.13;8307371;28;20062;-62
2023/04/25 13:51:23;;;;;;;8.48;2.90;;;;;;;12.77;58.59;100506.28;8284118;28;20049;-62
2023/04/25 13:55:23;;;;;;;11.75;2.03;;;;;;;13.03;59.57;100507.25;8271650;28;20046;-62
2023/04/25 13:59:25;;;;;;;5.10;2.08;;;;;;;13.08;60.62;100507.63;8292543;28;20537;-62
2023/04/25 14:03:26;;;;;;;9.85;2.05;;;;;;;12.64;62.00;100518.53;8289595;28;20038;-62
2023/04/25 14:07:26;;;;;;;7.38;3.15;;;;;;;12.77;64.70;100527.13;8288481;28;20180;-57
2023/04/25 14:11:27;;;;;;;5.20;2.08;;;;;;;11.92;64.53;100550.19;8289602;28;20054;-58
2023/04/25 14:15:27;;;;;;;9.98;3.92;;;;;;;11.17;66.87;100521.28;8289262;28;20069;-62
2023/04/25 14:19:28;;;;;;;8.30;3.92;;;;;;;11.13;65.42;100521.72;8289402;28;20121;-63
2023/04/25 14:23:29;;;;;;;5.72;3.30;;;;;;;11.32;65.64;100536.03;8288941;28;20401;-63
2023/04/25 14:27:29;;;;;;;8.20;3.30;;;;;;;11.64;67.01;100533.88;8289668;28;21377;-62
2023/04/25 14:31:29;;;;;;;7.32;2.30;;;;;;;12.04;67.39;100538.16;8289514;28;20485;-63
2023/04/25 14:35:30;;;;;;;7.90;2.05;;;;;;;12.08;66.31;100528.72;8292329;28;20061;-63
2023/04/25 14:39:30;;;;;;;12.05;2.30;;;;;;;12.11;62.41;100528.41;8286205;28;20500;-63
2023/04/25 14:43:31;;;;;;;11.10;1.98;;;;;;;12.48;62.54;100521.94;8285806;28;20064;-63
2023/04/25 14:47:31;;;;;;;11.00;1.75;;;;;;;12.96;61.90;100521.56;8286858;28;20048;-63
2023/04/25 14:51:33;;;;;;;8.63;2.20;;;;;;;12.62;59.90;100531.38;8287280;28;20409;-63
2023/04/25 14:55:33;;;;;;;9.10;2.08;;;;;;;12.65;59.94;100541.91;8285581;28;20038;-63
2023/04/25 14:59:33;;;;;;;8.63;1.67;;;;;;;12.39;58.81;100532.81;8284846;28;20034;-61
2023/04/25 15:03:34;;;;;;;5.45;1.70;;;;;;;12.23;59.35;100543.47;8285236;28;20044;-61
2023/04/25 15:07:34;;;;;;;6.82;2.45;;;;;;;12.50;60.10;100540.75;8284513;28;20040;-61
2023/04/25 15:11:35;;;;;;;9.02;4.43;;;;;;;13.07;61.78;100540.34;8285233;28;20048;-61
2023/04/25 15:15:35;;;;;;;9.18;4.22;;;;;;;12.93;60.37;100549.03;8285874;28;20520;-61
2023/04/25 15:19:36;;;;;;;12.18;5.00;;;;;;;12.95;62.50;100539.72;8285822;28;20038;-61
2023/04/25 15:23:38;;;;;;;20.35;6.07;;;;;;;12.79;61.40;100542.28;8284650;28;20054;-57
2023/04/25 15:27:41;;;;;;;16.58;5.28;;;;;;;12.82;59.66;100546.53;8286524;28;20049;-57
2023/04/25 15:31:42;;;;;;;24.25;8.65;;;;;;;12.85;57.85;100548.94;8285117;28;20175;-58
2023/04/25 15:35:42;;;;;;;8.48;4.57;;;;;;;13.01;59.39;100546.41;8285753;28;20524;-57
2023/04/25 15:39:43;;;;;;;8.80;3.50;;;;;;;12.89;60.56;100543.03;8284472;28;20496;-57
2023/04/25 15:43:46;;;;;;;14.95;4.45;;;;;;;12.83;59.36;100553.66;8283821;28;20065;-57
2023/04/25 15:47:48;;;;;;;5.60;1.58;;;;;;;12.99;59.33;100542.97;8283655;28;20123;-57
2023/04/25 15:51:49;;;;;;;5.07;1.27;;;;;;;12.80;58.07;100548.53;8284336;28;20053;-61
2023/04/25 15:55:50;;;;;;;8.40;1.77;;;;;;;12.36;55.17;100549.41;8282450;28;20053;-61
2023/04/25 15:59:50;;;;;;;6.38;1.20;;;;;;;12.32;55.53;100553.44;8280966;28;20119;-61
2023/04/25 16:03:51;;;;;;;8.27;1.45;;;;;;;12.09;56.97;100560.22;8284847;28;20350;-60
2023/04/25 16:07:52;;;;;;;5.68;1.20;;;;;;;11.89;61.23;100563.00;8286277;28;20042;-62
2023/04/25 16:11:53;;;;;;;6.35;1.60;;;;;;;11.80;62.30;100565.75;8291053;28;20521;-62
2023/04/25 16:15:53;;;;;;;5.13;1.90;;;;;;;11.90;62.23;100564.72;8291700;28;20500;-62
2023/04/25 16:19:55;;;;;;;17.38;5.70;;;;;;;12.04;62.80;100559.84;8289087;28;20519;-62
2023/04/25 16:23:55;;;;;;;8.82;2.45;;;;;;;12.27;63.16;100563.84;8290611;28;20042;-60
2023/04/25 16:27:56;;;;;;;8.82;2.20;;;;;;;12.38;59.18;100558.25;8290952;28;20337;-60
2023/04/25 16:31:56;;;;;;;5.80;1.55;;;;;;;12.41;59.40;100552.53;8308354;28;20541;-61
2023/04/25 16:35:57;;;;;;;6.72;2.30;;;;;;;12.20;58.66;100554.63;8301894;28;20041;-61
2023/04/25 16:39:57;;;;;;;6.60;2.10;;;;;;;12.03;60.67;100558.09;8289796;28;20500;-61
2023/04/25 16:43:58;;;;;;;3.08;0.70;;;;;;;11.98;58.12;100561.25;8289606;28;20030;-61
2023/04/25 16:47:58;;;;;;;4.28;1.55;;;;;;;11.95;59.51;100566.97;8290099;28;20042;-62
2023/04/25 16:51:59;;;;;;;4.05;1.25;;;;;;;11.91;59.47;100560.16;8290876;28;20041;-61
2023/04/25 16:55:59;;;;;;;7.35;1.30;;;;;;;12.03;59.72;100552.69;8287922;28;20050;-63
2023/04/25 17:00:00;;;;;;;10.52;3.30;;;;;;;12.11;60.13;100561.81;8289453;28;20693;-61
2023/04/25 17:04:01;;;;;;;5.43;2.28;;;;;;;11.93;61.25;100567.13;8289458;28;20073;-61
2023/04/25 17:08:01;;;;;;;9.27;1.88;;;;;;;11.96;60.68;100570.56;8299711;28;20068;-61
2023/04/25 17:12:03;;;;;;;7.35;1.13;;;;;;;11.87;58.79;100570.44;8296382;28;20033;-63
2023/04/25 17:16:04;;;;;;;8.05;1.85;;;;;;;12.20;65.20;100577.13;8296253;28;20038;-59
2023/04/25 17:20:05;;;;;;;6.53;1.65;;;;;;;12.24;61.17;100578.56;8287473;28;20050;-60
2023/04/25 17:25:11;;;;;;;7.55;2.22;;;;;;;11.76;58.38;100581.47;8315410;28;20784;-61
2023/04/25 17:29:11;;;;;;;3.33;1.60;;;;;;;11.48;58.66;100593.16;8303594;28;20041;-61
2023/04/25 17:33:12;;;;;;;8.85;2.08;;;;;;;11.32;59.84;100592.88;8286544;28;20040;-61
2023/04/25 17:37:15;;;;;;;7.05;3.50;;;;;;;11.28;60.58;100582.47;8313986;28;20030;-61
2023/04/25 17:41:16;;;;;;;7.93;2.35;;;;;;;11.39;59.82;100602.16;8311794;28;20041;-62
2023/04/25 17:45:17;;;;;;;5.68;1.70;;;;;;;11.41;58.89;100604.72;8312497;28;20068;-61
2023/04/25 17:49:17;;;;;;;6.07;1.90;;;;;;;11.33;59.93;100608.13;8310887;28;20128;-61
2023/04/25 17:53:18;;;;;;;5.10;2.78;;;;;;;11.15;59.63;100626.09;8272889;28;20074;-61
2023/04/25 17:57:21;;;;;;;8.90;2.75;;;;;;;10.95;59.85;100618.94;8251250;28;20509;-63
2023/04/25 18:01:22;;;;;;;9.18;3.40;;;;;;;10.79;60.39;100621.34;8270383;28;20046;-60
2023/04/25 18:05:22;;;;;;;8.30;2.88;;;;;;;10.72;60.73;100628.28;8280017;28;20160;-60
2023/04/25 18:09:23;;;;;;;8.95;2.80;;;;;;;10.69;61.48;100625.88;8280991;28;20046;-60
2023/04/25 18:13:24;;;;;;;9.38;2.03;;;;;;;10.70;61.98;100635.69;8280269;28;20508;-60
2023/04/25 18:17:25;;;;;;;6.75;2.00;;;;;;;10.61;61.88;100641.91;8279755;28;20504;-61
2023/04/25 18:21:26;;;;;;;6.70;1.90;;;;;;;10.61;61.87;100641.91;8278851;28;20038;-62
2023/04/25 18:25:26;;;;;;;9.13;1.90;;;;;;;10.57;61.44;100639.63;8278953;28;20521;-61
2023/04/25 18:29:27;;;;;;;7.63;1.70;;;;;;;10.49;63.25;100643.00;8278365;28;20503;-62
2023/04/25 18:33:27;;;;;;;10.63;2.97;;;;;;;10.39;61.98;100652.06;8272123;28;21010;-62
2023/04/25 18:37:28;;;;;;;10.27;2.33;;;;;;;10.18;64.09;100662.94;8257426;28;20049;-62
2023/04/25 18:41:28;;;;;;;13.02;2.88;;;;;;;9.96;64.58;100666.63;8244775;28;20061;-63
2023/04/25 18:45:28;;;;;;;6.05;1.90;;;;;;;9.85;65.95;100668.53;8239318;28;20349;-63
2023/04/25 18:49:30;;;;;;;5.82;2.00;;;;;;;9.73;66.44;100665.06;8258174;28;20046;-63